KFLL/FLL METAR and TAF weather

Enter ICAO airport designator
Station Type Date Time Source
KFLL METAR 2020/06/03 15:38 UTC NOAA

KFLL 031538Z 00000KT 2SM R10L/3000VP6000FT +TSRA SCT025CB BKN045 OVC075 24/23 A3005 RMK AO2 LTG DSNT W OCNL LTGICCG N-OHD-S TS N-OHD-S MOV NW P0015 T02390233 $


Station Type Date Time Source
KFLL Decoded METAR 2020/06/03 15:38 UTC NOAA

FORT LAUDERDALE/HOLLYWOOD, FL, United States (KFLL) 26-04N 080-09W 30M
Jun 03, 2020 - 11:38 AM EDT / 2020.06.03 1538 UTC
Wind: Calm:0
Visibility: 2 mile(s):0
Sky conditions: overcast
Weather: heavy rain with thunder; Cumulonimbus clouds, lightning observed
Precipitation last hour: 0.15 inches
Temperature: 75.0 F (23.9 C)
Dew Point: 73.9 F (23.3 C)
Relative Humidity: 96%
Pressure (altimeter): 30.05 in. Hg (1017 hPa)
ob: KFLL 031538Z 00000KT 2SM R10L/3000VP6000FT +TSRA SCT025CB BKN045 OVC075 24/23 A3005 RMK AO2 LTG DSNT W OCNL LTGICCG N-OHD-S TS N-OHD-S MOV NW P0015 T02390233
cycle: 15

Station Type Date Time Source
KFLL TAF 2020/06/03 15:38 UTC NOAA

TAF COR KFLL 031531Z 0315/0418 11006KT P6SM SHRA VCTS SCT020CB BKN050
FM032000 13012KT P6SM SCT025 BKN060
FM040200 11006KT P6SM SCT030 BKN060
FM041300 13012KT P6SM VCTS SCT025CB BKN060

Example: see airport list